Time;durP1;ratioP1;P1;durP2;ratioP2;P2;SDS_P1;SDS_P2;PMS_P1;PMS_P2;Temp;Humidity;BMP_temperature;BMP_pressure;BME280_temperature;BME280_humidity;BME280_pressure;Samples;Min_cycle;Max_cycle;Signal;HPM_P1;HPM_P2
2021/07/09 00:02:33;;;;;;;2.60;1.23;;;;;;;19.85;85.10;93691.22;5012619;28;20061;-91
2021/07/09 00:05:00;;;;;;;2.35;1.25;;;;;;;19.77;85.46;93698.50;5012349;28;20042;-92
2021/07/09 00:07:27;;;;;;;4.88;2.03;;;;;;;19.70;85.52;93692.75;5012277;28;20407;-91
2021/07/09 00:09:55;;;;;;;2.38;1.10;;;;;;;19.62;85.40;93690.63;5012532;28;20054;-92
2021/07/09 00:12:22;;;;;;;2.30;1.38;;;;;;;19.59;85.19;93697.13;5012350;28;20046;-91
2021/07/09 00:14:49;;;;;;;2.72;1.70;;;;;;;19.48;85.77;93701.53;5012364;28;20046;-92
2021/07/09 00:17:16;;;;;;;2.38;1.30;;;;;;;19.42;86.20;93688.72;5012295;28;20054;-91
2021/07/09 00:19:43;;;;;;;4.50;2.00;;;;;;;19.36;86.44;93693.88;5012394;28;20446;-90
2021/07/09 00:22:10;;;;;;;2.33;1.30;;;;;;;19.40;86.04;93680.38;5012171;28;20046;-91
2021/07/09 00:24:37;;;;;;;3.00;1.63;;;;;;;19.36;86.51;93686.06;5012328;28;20506;-91
2021/07/09 00:27:06;;;;;;;1.95;1.30;;;;;;;19.28;87.35;93680.56;5012061;28;20057;-89
2021/07/09 00:29:32;;;;;;;3.08;1.70;;;;;;;19.27;86.76;93668.59;5012167;28;20050;-91
2021/07/09 00:31:59;;;;;;;3.88;1.88;;;;;;;19.35;86.74;93675.94;5011635;28;20062;-92
2021/07/09 00:34:26;;;;;;;2.83;1.90;;;;;;;19.29;87.13;93669.91;5012182;28;20046;-91
2021/07/09 00:36:53;;;;;;;2.03;1.02;;;;;;;19.25;87.74;93668.06;5011897;28;20050;-92
2021/07/09 00:39:19;;;;;;;6.18;1.75;;;;;;;19.19;87.74;93675.06;5012073;28;20046;-90
2021/07/09 00:41:46;;;;;;;3.25;2.00;;;;;;;19.19;88.10;93668.03;5011794;28;20495;-92
2021/07/09 00:44:14;;;;;;;2.30;1.05;;;;;;;19.11;88.29;93667.72;5011793;28;20396;-92
2021/07/09 00:46:42;;;;;;;1.55;1.15;;;;;;;19.19;87.77;93670.63;5011580;28;20050;-90
2021/07/09 00:49:11;;;;;;;3.80;2.60;;;;;;;19.11;88.09;93671.09;5011883;28;20041;-90
2021/07/09 00:51:38;;;;;;;8.48;1.92;;;;;;;18.99;88.15;93665.28;5011738;28;20524;-92
2021/07/09 00:54:05;;;;;;;3.05;2.45;;;;;;;18.98;88.98;93659.25;5011682;28;20042;-90
2021/07/09 00:56:33;;;;;;;3.05;1.73;;;;;;;18.92;89.20;93660.28;5011633;28;20113;-91
2021/07/09 00:59:03;;;;;;;2.55;1.55;;;;;;;18.73;89.98;93649.47;5011442;28;20054;-91
2021/07/09 01:01:31;;;;;;;2.58;1.13;;;;;;;18.75;90.69;93666.41;5011673;28;20057;-91
2021/07/09 01:03:59;;;;;;;2.25;1.52;;;;;;;18.81;90.10;93664.63;5011757;28;20092;-91
2021/07/09 01:06:25;;;;;;;3.38;1.73;;;;;;;18.81;91.07;93669.84;5011675;28;20469;-90
2021/07/09 01:08:52;;;;;;;3.60;1.77;;;;;;;18.72;90.56;93672.13;5011598;28;20543;-91
2021/07/09 01:11:21;;;;;;;2.83;1.45;;;;;;;18.73;90.94;93673.69;5011613;28;20050;-91
2021/07/09 01:13:48;;;;;;;3.83;2.65;;;;;;;18.66;92.29;93671.28;5011278;28;20050;-91
2021/07/09 01:16:14;;;;;;;2.50;1.38;;;;;;;18.65;92.36;93672.31;5011422;28;20053;-92
2021/07/09 01:18:43;;;;;;;4.38;1.80;;;;;;;18.63;92.21;93668.41;5010474;28;20485;-92
2021/07/09 01:21:10;;;;;;;2.28;1.70;;;;;;;18.62;91.72;93669.44;5011097;28;20054;-91
2021/07/09 01:23:41;;;;;;;2.15;1.45;;;;;;;18.68;91.01;93666.63;5011220;28;20045;-91
2021/07/09 01:26:11;;;;;;;1.92;1.17;;;;;;;18.72;90.65;93669.53;5011246;28;20072;-94
2021/07/09 01:28:38;;;;;;;4.57;1.98;;;;;;;18.75;89.97;93669.00;5011772;28;20046;-93
2021/07/09 01:31:08;;;;;;;2.45;1.48;;;;;;;18.73;90.18;93668.47;5011112;28;20537;-90
2021/07/09 01:33:35;;;;;;;3.03;1.90;;;;;;;18.69;90.52;93667.41;5011065;28;20399;-91
2021/07/09 01:36:01;;;;;;;2.03;1.33;;;;;;;18.68;90.40;93678.84;5011131;28;20058;-90
2021/07/09 01:38:28;;;;;;;1.02;0.85;;;;;;;18.60;90.32;93681.91;5010985;28;20045;-91
2021/07/09 01:40:55;;;;;;;2.50;1.58;;;;;;;18.38;91.23;93675.75;5010886;28;20054;-91
2021/07/09 01:43:25;;;;;;;3.20;1.52;;;;;;;18.21;91.60;93664.66;5011157;28;20553;-91
2021/07/09 01:45:52;;;;;;;3.40;2.03;;;;;;;18.31;91.64;93685.56;5011019;28;20077;-91
2021/07/09 01:48:19;;;;;;;2.13;1.58;;;;;;;18.38;91.69;93685.38;5010984;28;20057;-91
2021/07/09 01:50:46;;;;;;;1.60;1.00;;;;;;;18.39;91.48;93681.75;5010969;28;20046;-91
2021/07/09 01:53:12;;;;;;;3.08;1.02;;;;;;;18.44;91.67;93684.38;5010670;28;20050;-90
2021/07/09 01:55:39;;;;;;;3.53;2.15;;;;;;;18.45;91.48;93683.34;5011014;28;20126;-92
2021/07/09 01:58:06;;;;;;;2.03;1.20;;;;;;;18.37;92.47;93684.56;5011131;28;20115;-90
2021/07/09 02:00:35;;;;;;;3.15;2.05;;;;;;;18.38;92.87;93685.38;5010717;28;20061;-91
2021/07/09 02:03:02;;;;;;;2.22;1.33;;;;;;;18.29;93.20;93670.19;5010937;28;20057;-90
2021/07/09 02:05:30;;;;;;;6.63;1.90;;;;;;;18.28;94.03;93676.44;5010653;28;20054;-90
2021/07/09 02:07:58;;;;;;;2.67;1.77;;;;;;;18.30;93.52;93684.00;5010654;28;20042;-91
2021/07/09 02:10:27;;;;;;;2.55;1.52;;;;;;;18.28;94.04;93680.84;5010908;28;20046;-91
2021/07/09 02:12:55;;;;;;;3.30;1.55;;;;;;;18.25;93.54;93679.53;5010636;28;20548;-91
2021/07/09 02:15:25;;;;;;;5.03;1.90;;;;;;;18.19;94.20;93674.53;5010871;28;20054;-91
2021/07/09 02:17:53;;;;;;;3.25;1.25;;;;;;;18.22;93.81;93689.63;5010724;28;20395;-91
2021/07/09 02:20:23;;;;;;;2.80;1.80;;;;;;;18.05;92.77;93674.88;5010464;28;20108;-91
2021/07/09 02:22:50;;;;;;;2.53;1.77;;;;;;;18.16;92.43;93686.97;5010892;28;20061;-91
2021/07/09 02:25:18;;;;;;;1.88;1.23;;;;;;;18.08;92.21;93682.22;5010520;28;20057;-91
2021/07/09 02:27:47;;;;;;;1.58;0.90;;;;;;;18.02;92.27;93690.97;5010543;28;20056;-91
2021/07/09 02:30:17;;;;;;;2.28;1.45;;;;;;;17.95;92.79;93685.19;5012898;28;20050;-90
2021/07/09 02:32:45;;;;;;;2.83;1.88;;;;;;;17.86;92.91;93680.41;5014194;28;20499;-90
2021/07/09 02:35:17;;;;;;;1.75;1.05;;;;;;;17.81;93.37;93682.19;5014254;28;20057;-91
2021/07/09 02:37:44;;;;;;;2.38;1.50;;;;;;;17.78;93.55;93686.06;5014106;28;20046;-90
2021/07/09 02:40:15;;;;;;;4.30;2.10;;;;;;;17.69;93.84;93685.66;5014104;28;20053;-91
2021/07/09 02:42:43;;;;;;;2.75;1.60;;;;;;;17.73;93.60;93694.56;5014154;28;20053;-90
2021/07/09 02:45:11;;;;;;;7.82;1.63;;;;;;;17.66;93.82;93680.16;5013931;28;20054;-90
2021/07/09 02:47:38;;;;;;;2.78;1.17;;;;;;;17.70;93.29;93689.84;5013945;28;20502;-92
2021/07/09 02:50:07;;;;;;;3.08;1.50;;;;;;;17.56;93.80;93673.06;5013959;28;20042;-91
2021/07/09 02:52:36;;;;;;;1.60;0.80;;;;;;;17.50;93.79;93672.22;5014030;28;20053;-91
2021/07/09 02:55:04;;;;;;;2.08;1.20;;;;;;;17.52;94.06;93670.16;5013990;28;20042;-92
2021/07/09 02:57:31;;;;;;;3.03;1.40;;;;;;;17.63;94.64;93686.63;5014064;28;20057;-90
2021/07/09 02:59:57;;;;;;;1.40;1.10;;;;;;;17.54;94.83;93675.88;5013717;28;20049;-91
2021/07/09 03:02:25;;;;;;;2.28;1.30;;;;;;;17.50;94.31;93670.38;5013880;28;20050;-90
2021/07/09 03:04:52;;;;;;;2.38;1.40;;;;;;;17.60;94.72;93687.91;5013683;28;20058;-92
2021/07/09 03:07:19;;;;;;;1.67;1.25;;;;;;;17.63;94.79;93692.63;5013652;28;20061;-91
2021/07/09 03:09:47;;;;;;;6.68;2.63;;;;;;;17.52;94.80;93680.53;5013677;28;20138;-91
2021/07/09 03:12:14;;;;;;;3.78;2.20;;;;;;;17.57;94.79;93690.19;5013608;28;20058;-89
2021/07/09 03:14:41;;;;;;;2.13;1.63;;;;;;;17.58;94.96;93697.75;5013516;28;20509;-91
2021/07/09 03:17:08;;;;;;;3.53;1.58;;;;;;;17.62;94.55;93692.88;5013590;28;20073;-90
2021/07/09 03:19:35;;;;;;;4.20;2.08;;;;;;;17.61;94.83;93697.28;5013429;28;20384;-90
2021/07/09 03:22:02;;;;;;;2.72;1.60;;;;;;;17.55;94.54;93695.63;5013371;28;20046;-90
2021/07/09 03:24:28;;;;;;;2.30;1.38;;;;;;;17.57;94.28;93706.59;5013331;28;20061;-91
2021/07/09 03:26:56;;;;;;;3.58;1.55;;;;;;;17.55;94.17;93706.03;5012983;28;20053;-90
2021/07/09 03:29:23;;;;;;;3.97;1.77;;;;;;;17.56;94.11;93704.22;5013446;28;20092;-91
2021/07/09 03:31:50;;;;;;;4.28;2.08;;;;;;;17.53;94.50;93704.72;5013446;28;20065;-91
2021/07/09 03:34:17;;;;;;;2.03;1.48;;;;;;;17.55;94.33;93695.63;5013303;28;20050;-92
2021/07/09 03:36:44;;;;;;;3.25;2.05;;;;;;;17.54;94.64;93688.88;5013516;28;20050;-91
2021/07/09 03:39:12;;;;;;;3.35;1.85;;;;;;;17.58;94.99;93694.38;5013022;28;20140;-91
2021/07/09 03:41:39;;;;;;;2.58;1.42;;;;;;;17.60;94.23;93693.09;5011947;28;20108;-91
2021/07/09 03:44:09;;;;;;;4.40;2.75;;;;;;;17.54;93.90;93678.47;5013143;28;20050;-91
2021/07/09 03:46:36;;;;;;;2.60;1.63;;;;;;;17.65;94.29;93694.19;5012876;28;20490;-91
2021/07/09 03:49:04;;;;;;;3.85;1.50;;;;;;;17.67;93.99;93690.31;5012826;28;20041;-90
2021/07/09 03:51:31;;;;;;;1.92;1.58;;;;;;;17.69;94.08;93687.50;5012914;28;20096;-91
2021/07/09 03:53:58;;;;;;;2.88;1.60;;;;;;;17.71;94.27;93680.22;5012752;28;20050;-91
2021/07/09 03:56:28;;;;;;;2.53;1.23;;;;;;;17.71;94.37;93686.22;5012720;28;20096;-89
2021/07/09 03:58:55;;;;;;;2.10;1.25;;;;;;;17.73;94.17;93686.75;5012841;28;20453;-90
2021/07/09 04:01:23;;;;;;;2.33;1.65;;;;;;;17.75;94.27;93687.31;5012633;28;20062;-90
2021/07/09 04:03:50;;;;;;;3.22;2.15;;;;;;;17.76;94.67;93683.69;5013486;28;20053;-93
2021/07/09 04:06:17;;;;;;;2.47;1.92;;;;;;;17.81;94.92;93684.78;5012534;28;20092;-91
2021/07/09 04:08:44;;;;;;;3.55;1.95;;;;;;;17.89;94.32;93679.94;5012440;28;20080;-90
2021/07/09 04:11:11;;;;;;;5.45;1.48;;;;;;;17.95;94.56;93674.78;5012709;28;20049;-91
2021/07/09 04:13:38;;;;;;;3.22;1.95;;;;;;;18.00;94.92;93669.63;5012568;28;20096;-91
2021/07/09 04:16:05;;;;;;;2.92;1.60;;;;;;;18.06;94.17;93676.50;5012337;28;20054;-92
2021/07/09 04:18:34;;;;;;;3.65;1.80;;;;;;;18.18;94.08;93675.56;5012291;28;20089;-92
2021/07/09 04:21:01;;;;;;;6.30;1.65;;;;;;;18.28;93.76;93681.63;4999194;28;20089;-91
2021/07/09 04:23:28;;;;;;;2.85;1.92;;;;;;;18.33;94.10;93670.50;4985816;28;20042;-91
2021/07/09 04:25:55;;;;;;;4.90;2.75;;;;;;;18.41;93.47;93679.66;5012095;28;20080;-91
2021/07/09 04:28:22;;;;;;;2.92;1.85;;;;;;;18.48;93.40;93677.66;5012392;28;20050;-91
2021/07/09 04:30:49;;;;;;;8.60;1.50;;;;;;;18.52;92.84;93672.75;5012337;28;20449;-90
2021/07/09 04:33:16;;;;;;;4.45;2.53;;;;;;;18.60;93.33;93668.91;5012045;28;20050;-91
2021/07/09 04:35:44;;;;;;;3.22;1.50;;;;;;;18.67;92.89;93672.88;5011870;28;20053;-92
2021/07/09 04:38:11;;;;;;;4.68;1.83;;;;;;;18.74;93.63;93667.44;5011939;28;20553;-90
2021/07/09 04:40:38;;;;;;;4.85;2.33;;;;;;;18.81;92.39;93669.84;5012215;28;20100;-91
2021/07/09 04:43:05;;;;;;;4.88;2.08;;;;;;;18.81;93.05;93656.81;5011878;28;20049;-90
2021/07/09 04:45:32;;;;;;;2.70;1.52;;;;;;;19.01;91.90;93679.59;5012078;28;20054;-90
2021/07/09 04:47:59;;;;;;;2.78;1.58;;;;;;;19.09;91.58;93681.00;5011936;28;20109;-90
2021/07/09 04:50:26;;;;;;;2.10;0.98;;;;;;;19.13;91.11;93678.66;5011763;28;20461;-90
2021/07/09 04:52:54;;;;;;;3.53;2.00;;;;;;;19.16;91.81;93676.34;5012085;28;20422;-91
2021/07/09 04:55:21;;;;;;;3.22;1.65;;;;;;;19.23;91.31;93669.09;5011735;28;20054;-90
2021/07/09 04:57:48;;;;;;;7.43;2.42;;;;;;;19.33;91.87;93672.78;5011548;28;20049;-90
2021/07/09 05:00:15;;;;;;;3.47;2.05;;;;;;;19.43;91.96;93670.22;5011695;28;20168;-91
2021/07/09 05:02:42;;;;;;;3.25;2.72;;;;;;;19.48;90.80;93665.03;5011441;28;20054;-90
2021/07/09 05:05:10;;;;;;;5.32;2.25;;;;;;;19.61;91.24;93668.22;5011839;28;20046;-90
2021/07/09 05:07:37;;;;;;;4.57;2.30;;;;;;;19.73;90.12;93660.97;5009926;28;20069;-89
2021/07/09 05:10:07;;;;;;;7.85;3.35;;;;;;;19.82;89.37;93661.28;5031235;28;20464;-91
2021/07/09 05:12:34;;;;;;;4.63;2.83;;;;;;;19.90;89.22;93657.34;5031096;28;20088;-90
2021/07/09 05:15:00;;;;;;;5.72;2.67;;;;;;;19.92;87.91;93637.03;5031133;28;20192;-89
2021/07/09 05:17:27;;;;;;;4.03;2.47;;;;;;;20.11;88.20;93654.84;5030923;28;20045;-90
2021/07/09 05:19:54;;;;;;;6.72;3.03;;;;;;;20.24;88.47;93646.53;5031237;28;20498;-90
2021/07/09 05:22:21;;;;;;;7.10;3.03;;;;;;;20.37;87.66;93642.59;5030914;28;20049;-90
2021/07/09 05:24:48;;;;;;;6.07;2.08;;;;;;;20.46;85.32;93634.28;5031003;28;20041;-90
2021/07/09 05:27:16;;;;;;;5.38;2.67;;;;;;;20.63;85.61;93632.19;5030796;28;20585;-90
2021/07/09 05:29:43;;;;;;;5.53;1.73;;;;;;;20.76;85.15;93630.06;5030896;28;20489;-90
2021/07/09 05:32:10;;;;;;;6.68;2.88;;;;;;;20.94;85.53;93634.78;5030757;28;20095;-90
2021/07/09 05:34:37;;;;;;;3.15;2.42;;;;;;;21.10;84.34;93632.13;5030928;28;20057;-91
2021/07/09 05:37:05;;;;;;;3.53;2.33;;;;;;;21.24;83.09;93632.34;5030974;28;20053;-90
2021/07/09 05:39:31;;;;;;;4.53;2.58;;;;;;;21.35;84.32;93639.09;5030691;28;20052;-90
2021/07/09 05:42:00;;;;;;;6.43;2.92;;;;;;;21.42;83.33;93640.69;5030715;28;20057;-90
2021/07/09 05:44:28;;;;;;;5.60;2.35;;;;;;;21.61;82.07;93639.03;5030498;28;20528;-89
2021/07/09 05:46:55;;;;;;;6.00;3.38;;;;;;;21.85;80.53;93635.03;5030709;28;20485;-89
2021/07/09 05:49:22;;;;;;;9.55;2.97;;;;;;;22.03;79.85;93634.38;5031111;28;20041;-91
2021/07/09 05:51:49;;;;;;;4.60;2.35;;;;;;;22.26;78.79;93640.00;5030774;28;20111;-89
2021/07/09 05:54:16;;;;;;;5.22;1.50;;;;;;;22.49;78.31;93642.22;5030747;28;20041;-89
2021/07/09 05:56:42;;;;;;;3.25;2.33;;;;;;;22.67;77.48;93646.00;5030669;28;20596;-89
2021/07/09 05:59:09;;;;;;;5.82;2.45;;;;;;;22.85;76.11;93643.78;5030436;28;20052;-90
2021/07/09 06:01:37;;;;;;;4.38;2.47;;;;;;;23.06;74.41;93645.13;5030595;28;20445;-89
2021/07/09 06:04:04;;;;;;;3.33;2.13;;;;;;;23.06;74.59;93639.13;5030694;28;20100;-89
2021/07/09 06:06:31;;;;;;;3.00;1.65;;;;;;;23.31;74.29;93653.81;5034754;28;20057;-89
2021/07/09 06:08:58;;;;;;;4.07;1.98;;;;;;;23.54;72.85;93646.22;5034613;28;20053;-90
2021/07/09 06:11:25;;;;;;;2.88;1.75;;;;;;;23.60;72.70;93647.72;5034341;28;20049;-87
2021/07/09 06:13:52;;;;;;;3.70;2.78;;;;;;;23.70;72.61;93653.91;5034311;28;20168;-89
2021/07/09 06:16:19;;;;;;;5.88;2.15;;;;;;;24.07;70.93;93646.34;5034618;28;20053;-89
2021/07/09 06:18:47;;;;;;;2.65;1.10;;;;;;;24.27;70.21;93646.09;5034444;28;20049;-89
2021/07/09 06:21:14;;;;;;;7.28;1.60;;;;;;;24.24;69.34;93645.88;5034388;28;20099;-89
2021/07/09 06:23:42;;;;;;;2.83;1.42;;;;;;;24.63;68.65;93641.34;5034212;28;20049;-90
2021/07/09 06:26:09;;;;;;;9.40;2.35;;;;;;;25.02;66.57;93634.94;5033950;28;20536;-88
2021/07/09 06:28:36;;;;;;;3.88;1.95;;;;;;;25.39;64.09;93639.53;5034388;28;20050;-88
2021/07/09 06:31:06;;;;;;;2.72;1.67;;;;;;;25.64;63.91;93635.66;5034642;28;20045;-88
2021/07/09 06:33:32;;;;;;;3.75;2.13;;;;;;;26.01;62.55;93635.72;5034032;28;20520;-89
2021/07/09 06:36:00;;;;;;;2.42;1.42;;;;;;;26.35;59.99;93638.94;5034029;28;20041;-90
2021/07/09 06:38:27;;;;;;;6.40;1.88;;;;;;;26.65;59.65;93637.44;5034022;28;20053;-89
2021/07/09 06:40:54;;;;;;;2.97;1.42;;;;;;;26.97;58.16;93640.09;5033816;28;20539;-88
2021/07/09 06:43:21;;;;;;;3.40;2.42;;;;;;;27.11;57.80;93634.75;5034093;28;20080;-86
2021/07/09 06:45:47;;;;;;;2.45;1.80;;;;;;;27.33;57.21;93633.13;5034119;28;20111;-87
2021/07/09 06:48:14;;;;;;;6.22;2.00;;;;;;;27.76;57.21;93636.22;5033777;28;20552;-89
2021/07/09 06:50:41;;;;;;;2.55;1.17;;;;;;;27.91;55.78;93632.34;5033856;28;20096;-87
2021/07/09 06:53:09;;;;;;;2.20;1.30;;;;;;;28.24;55.62;93637.22;5033635;28;20053;-89
2021/07/09 06:55:36;;;;;;;1.58;1.00;;;;;;;28.44;54.82;93624.44;5033582;28;20477;-89
2021/07/09 06:58:03;;;;;;;2.28;1.15;;;;;;;28.44;54.82;93624.44;5033848;28;20096;-86
2021/07/09 07:00:30;;;;;;;15.27;1.80;;;;;;;27.47;57.07;93628.53;5033551;28;20053;-84
2021/07/09 07:02:57;;;;;;;2.80;1.45;;;;;;;27.80;55.44;93624.72;5033351;28;20053;-85
2021/07/09 07:05:24;;;;;;;1.83;1.20;;;;;;;28.38;54.83;93623.84;5033618;28;20103;-89
2021/07/09 07:07:50;;;;;;;2.60;1.20;;;;;;;28.75;52.38;93615.53;5033075;28;20104;-85
2021/07/09 07:10:19;;;;;;;2.17;1.17;;;;;;;29.00;52.75;93623.72;5033391;28;20144;-88
2021/07/09 07:12:47;;;;;;;2.10;1.20;;;;;;;28.94;50.80;93623.16;5033405;28;20634;-87
2021/07/09 07:15:14;;;;;;;2.67;1.55;;;;;;;29.10;52.06;93619.97;5033005;28;20505;-88
2021/07/09 07:17:41;;;;;;;2.90;1.27;;;;;;;29.06;50.99;93625.91;5028857;28;20046;-87
2021/07/09 07:20:08;;;;;;;2.80;1.38;;;;;;;28.44;52.56;93619.94;5033201;28;20468;-88
2021/07/09 07:22:35;;;;;;;1.98;1.30;;;;;;;28.14;54.03;93625.06;5033028;28;20058;-88
2021/07/09 07:25:02;;;;;;;1.98;1.42;;;;;;;28.07;54.67;93620.25;5033214;28;20050;-87
2021/07/09 07:27:30;;;;;;;3.17;1.50;;;;;;;28.10;54.41;93618.84;5033149;28;20049;-88
2021/07/09 07:29:58;;;;;;;2.33;1.63;;;;;;;28.83;52.57;93617.38;5033164;28;20045;-89
2021/07/09 07:32:26;;;;;;;2.50;1.38;;;;;;;28.74;50.95;93612.13;5032943;28;20103;-88
2021/07/09 07:34:53;;;;;;;2.28;1.42;;;;;;;29.19;50.54;93608.28;5032931;28;20136;-86
2021/07/09 07:37:20;;;;;;;6.00;2.03;;;;;;;28.67;51.24;93609.97;5033155;28;20049;-86
2021/07/09 07:39:46;;;;;;;1.38;1.00;;;;;;;29.32;50.08;93614.44;5033016;28;20057;-89
2021/07/09 07:42:13;;;;;;;2.20;1.30;;;;;;;29.92;48.79;93612.88;5032889;28;20053;-85
2021/07/09 07:44:41;;;;;;;5.38;1.15;;;;;;;-147.90;100.00;59510.75;5032721;28;20049;-88
2021/07/09 07:47:08;;;;;;;3.22;1.60;;;;;;;30.77;45.53;93597.69;5032758;28;20050;-88
2021/07/09 07:49:35;;;;;;;4.50;1.45;;;;;;;30.83;45.39;93600.13;5032622;28;20536;-88
2021/07/09 07:52:02;;;;;;;2.78;1.20;;;;;;;31.19;45.33;93596.72;5032810;28;20386;-88
2021/07/09 07:54:30;;;;;;;1.70;0.95;;;;;;;30.75;45.04;93602.53;5032669;28;20042;-82
2021/07/09 07:56:57;;;;;;;18.95;2.28;;;;;;;30.45;45.03;93602.63;5032559;28;20053;-87
2021/07/09 07:59:24;;;;;;;2.25;1.00;;;;;;;29.97;45.86;93586.19;5032518;28;20461;-86
2021/07/09 08:01:52;;;;;;;2.03;1.25;;;;;;;30.35;47.17;93595.09;5032365;28;20117;-87
2021/07/09 08:04:19;;;;;;;3.80;1.50;;;;;;;30.79;46.95;93595.47;5032359;28;20060;-88
2021/07/09 08:06:45;;;;;;;2.80;1.13;;;;;;;31.15;45.08;93595.84;5032528;28;20414;-87
2021/07/09 08:09:12;;;;;;;2.67;1.48;;;;;;;31.11;44.32;93594.19;5032246;28;20062;-90
2021/07/09 08:11:39;;;;;;;2.33;1.17;;;;;;;31.10;44.18;93590.75;5032503;28;20056;-88
2021/07/09 08:14:06;;;;;;;2.70;1.35;;;;;;;31.11;45.30;93589.66;5032274;28;20057;-87
2021/07/09 08:16:33;;;;;;;2.75;1.30;;;;;;;30.70;45.71;93586.06;5032048;28;20045;-87
2021/07/09 08:19:01;;;;;;;2.00;1.23;;;;;;;30.39;44.29;93590.69;5032061;28;20516;-86
2021/07/09 08:21:28;;;;;;;2.67;1.58;;;;;;;30.80;45.12;93575.81;5032054;28;20053;-88
2021/07/09 08:23:55;;;;;;;3.20;1.88;;;;;;;30.37;45.73;93587.59;5032028;28;20057;-85
2021/07/09 08:26:22;;;;;;;2.72;1.13;;;;;;;30.37;47.73;93584.97;5032220;28;20156;-88
2021/07/09 08:28:49;;;;;;;1.70;1.13;;;;;;;29.74;47.16;93581.22;5031594;28;20060;-83
2021/07/09 08:31:16;;;;;;;2.25;1.25;;;;;;;29.83;49.18;93581.16;5031786;28;20096;-87
2021/07/09 08:33:43;;;;;;;2.08;0.85;;;;;;;30.35;46.15;93579.97;5023820;28;20046;-88
2021/07/09 08:36:11;;;;;;;1.88;0.80;;;;;;;30.99;44.48;93573.72;5019600;28;20073;-89
2021/07/09 08:38:38;;;;;;;3.20;1.75;;;;;;;31.36;43.24;93557.81;5022335;28;20103;-85
2021/07/09 08:41:05;;;;;;;2.60;1.80;;;;;;;31.88;42.81;93571.47;5021627;28;20052;-87
2021/07/09 08:43:32;;;;;;;1.83;1.02;;;;;;;31.29;44.15;93563.69;5019791;28;20128;-87
2021/07/09 08:45:59;;;;;;;2.15;1.17;;;;;;;31.52;43.65;93562.47;5019131;28;20132;-87
2021/07/09 08:48:26;;;;;;;2.05;1.50;;;;;;;31.89;43.51;93564.28;5021184;28;20053;-89
2021/07/09 08:50:53;;;;;;;2.15;1.00;;;;;;;31.41;42.41;93564.78;5022005;28;20041;-86
2021/07/09 08:53:22;;;;;;;1.80;1.10;;;;;;;31.29;44.07;93566.34;5019450;28;20045;-87
2021/07/09 08:55:48;;;;;;;3.47;1.58;;;;;;;31.61;43.89;93565.78;5022371;28;20073;-86
2021/07/09 08:58:15;;;;;;;2.35;1.27;;;;;;;31.63;41.02;93562.75;5022770;28;20574;-86
2021/07/09 09:00:43;;;;;;;2.22;1.17;;;;;;;31.20;42.59;93555.81;5020964;28;20528;-86
2021/07/09 09:03:18;;;;;;;1.40;0.93;;;;;;;30.65;42.64;93563.16;5016759;28;21170;-86
2021/07/09 09:05:46;;;;;;;1.92;0.90;;;;;;;30.73;43.10;93554.34;5015416;28;20049;-83
2021/07/09 09:08:14;;;;;;;1.48;0.82;;;;;;;30.90;42.82;93524.22;5024068;28;20068;-87
2021/07/09 09:10:44;;;;;;;1.98;1.00;;;;;;;31.12;42.27;93550.63;5031107;28;20548;-86
2021/07/09 09:13:12;;;;;;;2.47;1.25;;;;;;;30.31;43.58;93549.94;5031501;28;20045;-82
2021/07/09 09:15:40;;;;;;;2.65;1.45;;;;;;;29.86;44.76;93554.03;5031103;28;20049;-80
2021/07/09 09:18:25;;;;;;;1.85;0.90;;;;;;;29.64;45.32;93560.41;5031157;28;20394;-82
2021/07/09 09:21:02;;;;;;;1.60;0.65;;;;;;;30.02;45.14;93550.81;5031158;28;20604;-84
2021/07/09 09:23:31;;;;;;;1.58;0.80;;;;;;;30.04;43.58;93552.03;5027172;28;20453;-84
2021/07/09 09:26:00;;;;;;;1.95;0.77;;;;;;;30.79;42.86;93549.63;5014678;28;20058;-86
2021/07/09 09:28:29;;;;;;;2.45;1.35;;;;;;;30.86;42.28;93536.59;5031008;28;20053;-86
2021/07/09 09:30:57;;;;;;;1.65;1.15;;;;;;;31.16;41.43;93552.31;5028421;28;20052;-86
2021/07/09 09:33:32;;;;;;;1.85;1.23;;;;;;;30.21;42.96;93523.84;5030825;28;20543;-87
2021/07/09 09:35:59;;;;;;;1.70;1.17;;;;;;;30.54;43.94;93545.03;5030805;28;20455;-87
2021/07/09 09:38:29;;;;;;;2.05;1.38;;;;;;;30.61;42.08;93533.88;5030537;28;20478;-84
2021/07/09 09:40:57;;;;;;;1.83;0.80;;;;;;;31.25;42.05;93541.56;5030429;28;20830;-87
2021/07/09 09:43:28;;;;;;;4.85;1.40;;;;;;;31.10;41.42;93537.69;5030839;28;20057;-85
2021/07/09 09:46:05;;;;;;;2.28;1.10;;;;;;;31.24;42.16;93540.00;5030833;28;20046;-84
2021/07/09 09:48:44;;;;;;;2.00;1.00;;;;;;;31.24;41.25;93534.69;5030945;28;20053;-86
2021/07/09 09:51:27;;;;;;;2.00;1.10;;;;;;;31.69;41.35;93540.16;5025048;28;20046;-86
2021/07/09 09:53:55;;;;;;;2.25;1.35;;;;;;;32.11;39.93;93526.56;5009161;28;20050;-88
2021/07/09 09:56:37;;;;;;;2.05;1.15;;;;;;;31.71;39.07;93527.34;5010931;28;20049;-87
2021/07/09 09:59:23;;;;;;;1.85;1.00;;;;;;;31.82;40.69;93533.72;5010819;28;20049;-86
2021/07/09 10:01:52;;;;;;;2.15;0.95;;;;;;;32.33;41.04;93529.00;5029546;28;20083;-82
2021/07/09 10:04:19;;;;;;;2.20;1.48;;;;;;;31.82;39.81;93533.72;5030557;28;20053;-84
2021/07/09 10:06:47;;;;;;;3.60;1.63;;;;;;;31.36;41.00;93525.97;5030453;28;20057;-87
2021/07/09 10:09:15;;;;;;;2.97;1.23;;;;;;;31.04;43.00;93526.53;5030482;28;20095;-87
2021/07/09 10:11:43;;;;;;;1.60;1.00;;;;;;;31.62;40.87;93519.53;5030705;28;20053;-87
2021/07/09 10:14:12;;;;;;;2.20;1.10;;;;;;;32.34;39.55;93519.94;5030669;28;20061;-88
2021/07/09 10:16:44;;;;;;;3.45;1.23;;;;;;;32.56;40.30;93504.53;5030566;28;20137;-87
2021/07/09 10:19:15;;;;;;;2.10;1.10;;;;;;;32.09;40.23;93507.53;5030561;28;20417;-88
2021/07/09 10:21:42;;;;;;;2.08;1.35;;;;;;;30.96;41.35;93508.09;5030353;28;20119;-83
2021/07/09 10:24:10;;;;;;;7.20;2.30;;;;;;;31.25;42.79;93495.66;5030503;28;20108;-84
2021/07/09 10:26:43;;;;;;;1.33;0.90;;;;;;;31.64;42.51;93490.75;5030554;28;20061;-87
2021/07/09 10:29:11;;;;;;;2.65;1.63;;;;;;;31.44;43.32;93493.25;5030548;28;20477;-85
2021/07/09 10:31:41;;;;;;;2.33;1.30;;;;;;;31.12;44.16;93486.94;5030436;28;20049;-87
2021/07/09 10:34:30;;;;;;;2.80;1.40;;;;;;;31.20;43.54;93478.09;5030266;28;20054;-86
2021/07/09 10:37:00;;;;;;;1.95;1.08;;;;;;;31.76;43.00;93470.56;5024837;28;20050;-87
2021/07/09 10:39:39;;;;;;;1.50;1.00;;;;;;;31.07;42.76;93467.50;5010288;28;20050;-81
2021/07/09 10:42:22;;;;;;;17.48;1.65;;;;;;;30.96;42.90;93474.34;5010520;28;20145;-85
2021/07/09 10:45:00;;;;;;;1.98;1.30;;;;;;;31.00;43.67;93479.78;5010592;28;20053;-83
2021/07/09 10:47:42;;;;;;;1.42;0.93;;;;;;;31.20;43.81;93462.94;5010653;28;20081;-87
2021/07/09 10:50:10;;;;;;;2.03;1.17;;;;;;;31.86;41.92;93481.53;5010872;28;20065;-88
2021/07/09 10:52:58;;;;;;;2.20;1.00;;;;;;;31.66;41.73;93466.50;5014088;28;20050;-85
2021/07/09 10:55:57;;;;;;;2.45;1.55;;;;;;;31.44;42.24;93460.59;5013958;28;20092;-87
2021/07/09 10:58:34;;;;;;;2.08;1.23;;;;;;;32.04;40.82;93461.84;5013840;28;20455;-83
2021/07/09 11:01:11;;;;;;;2.15;1.05;;;;;;;31.85;41.55;93461.34;5025848;28;20052;-84
2021/07/09 11:03:40;;;;;;;1.75;1.17;;;;;;;32.07;42.12;93455.84;5033385;28;20107;-88
2021/07/09 11:06:12;;;;;;;3.25;1.20;;;;;;;32.52;40.89;93456.59;5033575;28;20136;-84
2021/07/09 11:08:53;;;;;;;2.35;0.98;;;;;;;32.38;39.77;93457.75;5033817;28;20072;-84
2021/07/09 11:11:47;;;;;;;3.63;1.40;;;;;;;31.43;41.93;93457.16;5033762;28;20057;-82
2021/07/09 11:14:16;;;;;;;1.90;1.42;;;;;;;31.28;42.70;93456.00;5030413;28;20125;-84
2021/07/09 11:16:44;;;;;;;3.03;1.90;;;;;;;31.91;41.97;93451.28;5017989;28;20050;-86
2021/07/09 11:19:15;;;;;;;2.88;1.30;;;;;;;31.97;41.78;93444.59;5026603;28;20497;-82
2021/07/09 11:22:01;;;;;;;3.75;1.27;;;;;;;31.91;40.60;93440.66;5032749;28;20076;-88
2021/07/09 11:24:31;;;;;;;1.88;1.25;;;;;;;32.03;41.07;93449.66;5031796;28;20064;-86
2021/07/09 11:27:01;;;;;;;4.90;1.83;;;;;;;31.86;40.91;93432.94;5011716;28;20046;-85
2021/07/09 11:29:34;;;;;;;2.55;1.45;;;;;;;31.30;41.20;93432.56;5012923;28;20101;-83
2021/07/09 11:32:03;;;;;;;2.50;1.38;;;;;;;32.00;41.12;93416.59;5013083;28;20049;-85
2021/07/09 11:34:33;;;;;;;2.40;1.55;;;;;;;32.44;39.82;93415.75;5013168;28;20108;-83
2021/07/09 11:37:01;;;;;;;5.07;1.30;;;;;;;32.97;39.07;93419.22;5015747;28;20049;-86
2021/07/09 11:39:31;;;;;;;2.05;1.17;;;;;;;32.88;38.47;93419.41;5032146;28;20363;-82
2021/07/09 11:42:05;;;;;;;1.70;0.90;;;;;;;32.79;38.67;93403.63;5030615;28;20133;-87